Time;durP1;ratioP1;P1;durP2;ratioP2;P2;SDS_P1;SDS_P2;PMS_P1;PMS_P2;Temp;Humidity;BMP_temperature;BMP_pressure;BME280_temperature;BME280_humidity;BME280_pressure;Samples;Min_cycle;Max_cycle;Signal;HPM_P1;HPM_P2
2022/09/01 00:02:07;;;;;;;2.45;2.25;;;20.10;99.90;;;;;;5011063;28;20280;-84
2022/09/01 00:04:37;;;;;;;9.05;2.17;;;20.00;99.90;;;;;;5012316;28;20179;-84
2022/09/01 00:07:04;;;;;;;4.68;2.20;;;20.10;99.90;;;;;;5012397;28;20169;-84
2022/09/01 00:09:30;;;;;;;9.55;3.05;;;20.10;99.90;;;;;;5011802;28;20603;-83
2022/09/01 00:11:55;;;;;;;4.15;2.17;;;20.00;99.90;;;;;;5012122;28;20188;-84
2022/09/01 00:14:26;;;;;;;3.03;2.10;;;19.90;99.90;;;;;;5013882;28;20512;-84
2022/09/01 00:16:52;;;;;;;4.30;2.15;;;19.90;99.90;;;;;;5013538;28;20172;-84
2022/09/01 00:19:19;;;;;;;11.20;2.60;;;19.90;99.90;;;;;;5012197;28;20176;-84
2022/09/01 00:21:45;;;;;;;3.45;2.35;;;19.90;99.90;;;;;;5012442;28;20255;-84
2022/09/01 00:24:13;;;;;;;3.92;2.28;;;19.80;99.90;;;;;;5015414;28;20272;-84
2022/09/01 00:26:38;;;;;;;3.70;2.60;;;19.80;99.90;;;;;;5018150;28;20215;-84
2022/09/01 00:29:05;;;;;;;5.50;2.58;;;19.90;99.90;;;;;;5016414;28;20168;-84
2022/09/01 00:31:31;;;;;;;5.55;2.15;;;19.80;99.90;;;;;;5017486;28;20695;-84
2022/09/01 00:33:57;;;;;;;2.33;1.88;;;19.90;99.90;;;;;;5015389;28;20164;-84
2022/09/01 00:36:23;;;;;;;10.95;2.40;;;20.00;99.90;;;;;;5015942;28;20183;-84
2022/09/01 00:38:49;;;;;;;5.78;2.28;;;19.90;99.90;;;;;;5015605;28;20169;-84
2022/09/01 00:41:18;;;;;;;9.43;3.88;;;20.00;99.90;;;;;;5013293;28;20216;-84
2022/09/01 00:43:48;;;;;;;3.83;2.30;;;20.10;99.90;;;;;;5012059;28;20188;-83
2022/09/01 00:46:17;;;;;;;4.78;2.78;;;20.20;99.90;;;;;;5012080;28;20191;-83
2022/09/01 00:48:43;;;;;;;11.13;2.45;;;20.10;99.90;;;;;;5011771;28;20164;-84
2022/09/01 00:51:11;;;;;;;4.35;2.38;;;20.00;99.90;;;;;;5011762;28;20176;-84
2022/09/01 00:53:39;;;;;;;5.60;2.30;;;20.00;99.90;;;;;;5013024;28;20180;-85
2022/09/01 00:56:06;;;;;;;10.10;2.72;;;20.00;99.90;;;;;;5011897;28;20180;-84
2022/09/01 00:58:34;;;;;;;5.47;2.38;;;19.90;99.90;;;;;;5011559;28;20176;-84
2022/09/01 01:01:01;;;;;;;3.70;2.53;;;19.80;99.90;;;;;;5012928;28;20200;-84
2022/09/01 01:03:29;;;;;;;4.25;2.55;;;20.00;99.90;;;;;;5011858;28;20215;-84
2022/09/01 01:05:57;;;;;;;3.28;2.58;;;19.90;99.90;;;;;;5012001;28;20168;-85
2022/09/01 01:08:33;;;;;;;2.80;1.92;;;19.80;99.90;;;;;;5011704;28;20567;-84
2022/09/01 01:11:06;;;;;;;13.15;2.30;;;19.70;99.90;;;;;;5011767;28;20172;-84
2022/09/01 01:13:35;;;;;;;7.88;2.03;;;19.60;99.90;;;;;;5011883;28;20600;-84
2022/09/01 01:16:02;;;;;;;7.97;2.40;;;19.60;99.90;;;;;;5011838;28;20527;-84
2022/09/01 01:18:28;;;;;;;3.17;2.13;;;19.70;99.90;;;;;;5011694;28;20259;-84
2022/09/01 01:24:17;;;;;;;3.30;2.33;;;19.40;99.90;;;;;;5012988;28;20179;-84
2022/09/01 01:26:43;;;;;;;5.10;1.90;;;19.30;99.90;;;;;;5011785;28;20687;-83
2022/09/01 01:29:09;;;;;;;6.68;2.00;;;19.20;99.90;;;;;;5015777;28;20532;-84
2022/09/01 01:31:35;;;;;;;12.10;2.40;;;19.10;99.90;;;;;;5015291;28;20173;-83
2022/09/01 01:34:01;;;;;;;3.83;2.17;;;19.10;99.90;;;;;;5015141;28;20156;-83
2022/09/01 01:36:35;;;;;;;2.83;1.60;;;19.10;99.90;;;;;;5014435;28;20180;-84
2022/09/01 01:39:05;;;;;;;5.25;2.00;;;19.10;99.90;;;;;;5014138;28;20191;-84
2022/09/01 01:41:33;;;;;;;6.88;2.08;;;19.20;99.90;;;;;;5015563;28;20298;-85
2022/09/01 01:44:03;;;;;;;6.50;1.77;;;19.20;99.90;;;;;;5015312;28;20744;-84
2022/09/01 01:46:29;;;;;;;2.97;2.20;;;19.30;99.90;;;;;;5015243;28;20208;-83
2022/09/01 01:48:55;;;;;;;9.60;2.20;;;19.20;99.90;;;;;;5015151;28;20172;-84
2022/09/01 01:51:27;;;;;;;8.00;2.35;;;19.20;99.90;;;;;;5015172;28;20625;-84
2022/09/01 01:53:54;;;;;;;3.05;1.98;;;19.00;99.90;;;;;;5015238;28;20219;-83
2022/09/01 01:56:24;;;;;;;2.85;1.85;;;18.80;99.90;;;;;;5015157;28;20585;-84
2022/09/01 01:58:54;;;;;;;2.45;2.10;;;18.90;99.90;;;;;;5015468;28;20176;-84
2022/09/01 02:01:24;;;;;;;3.00;2.08;;;19.10;99.90;;;;;;5014410;28;20575;-84
2022/09/01 02:03:51;;;;;;;5.07;1.90;;;19.30;99.90;;;;;;5014564;28;20191;-83
2022/09/01 02:06:23;;;;;;;4.53;1.85;;;19.30;99.90;;;;;;5014600;28;20227;-83
2022/09/01 02:08:56;;;;;;;2.33;1.90;;;19.40;99.90;;;;;;5014821;28;20165;-84
2022/09/01 02:11:25;;;;;;;1.95;1.75;;;19.50;99.90;;;;;;5016098;28;20187;-83
2022/09/01 02:13:56;;;;;;;4.28;2.03;;;19.60;99.90;;;;;;5014395;28;20268;-84
2022/09/01 02:16:23;;;;;;;2.53;1.67;;;19.40;99.90;;;;;;5014572;28;20626;-84
2022/09/01 02:18:50;;;;;;;5.53;1.88;;;19.20;99.90;;;;;;5014704;28;20626;-83
2022/09/01 02:21:19;;;;;;;9.55;1.80;;;19.40;99.90;;;;;;5014378;28;20232;-83
2022/09/01 02:23:48;;;;;;;3.13;1.83;;;19.50;99.90;;;;;;5014089;28;20716;-82
2022/09/01 02:26:15;;;;;;;5.15;1.65;;;19.50;99.90;;;;;;5014660;28;20169;-84
2022/09/01 02:28:41;;;;;;;3.38;1.75;;;19.30;99.90;;;;;;5014375;28;20191;-84
2022/09/01 02:31:09;;;;;;;6.45;1.60;;;19.30;99.90;;;;;;5015739;28;20541;-83
2022/09/01 02:33:38;;;;;;;6.47;2.00;;;19.40;99.90;;;;;;5014261;28;20538;-84
2022/09/01 02:36:12;;;;;;;2.33;1.85;;;19.30;99.90;;;;;;5014094;28;20184;-83
2022/09/01 02:38:43;;;;;;;2.58;1.63;;;19.20;99.90;;;;;;5013805;28;20298;-83
2022/09/01 02:41:09;;;;;;;2.35;2.10;;;19.20;99.90;;;;;;5014851;28;20242;-84
2022/09/01 02:43:34;;;;;;;2.42;1.70;;;19.20;99.90;;;;;;5014147;28;20196;-83
2022/09/01 02:46:01;;;;;;;2.40;1.95;;;19.00;99.90;;;;;;5014382;28;20208;-84
2022/09/01 02:48:34;;;;;;;3.00;1.83;;;19.10;99.90;;;;;;5014165;28;20165;-83
2022/09/01 02:51:05;;;;;;;3.03;1.92;;;18.90;99.90;;;;;;5014065;28;20180;-83
2022/09/01 02:53:33;;;;;;;4.05;2.05;;;18.70;99.90;;;;;;5014014;28;20180;-83
2022/09/01 02:56:01;;;;;;;3.35;2.40;;;18.90;99.90;;;;;;5014395;28;20169;-84
2022/09/01 02:58:28;;;;;;;3.63;1.80;;;18.80;99.90;;;;;;5014131;28;20234;-84
2022/09/01 03:00:56;;;;;;;2.45;2.10;;;18.90;99.90;;;;;;5014263;28;20220;-83
2022/09/01 03:03:23;;;;;;;6.05;2.03;;;18.80;99.90;;;;;;5013789;28;20211;-82
2022/09/01 03:05:55;;;;;;;5.38;2.13;;;18.80;99.90;;;;;;5013896;28;20609;-84
2022/09/01 03:08:23;;;;;;;2.65;2.30;;;18.70;99.90;;;;;;5013573;28;20268;-84
2022/09/01 03:10:50;;;;;;;4.82;1.98;;;18.80;99.90;;;;;;5013984;28;20176;-84
2022/09/01 03:13:20;;;;;;;3.92;2.22;;;18.70;99.90;;;;;;5013618;28;20238;-83
2022/09/01 03:15:46;;;;;;;6.88;2.10;;;18.70;99.90;;;;;;5013738;28;20215;-83
2022/09/01 03:18:13;;;;;;;2.72;2.50;;;18.70;99.90;;;;;;5013555;28;20503;-83
2022/09/01 03:20:45;;;;;;;2.42;1.80;;;18.60;99.90;;;;;;5013106;28;20188;-83
2022/09/01 03:23:14;;;;;;;11.60;2.28;;;18.60;99.90;;;;;;5012833;28;20200;-83
2022/09/01 03:25:45;;;;;;;8.60;2.30;;;18.50;99.90;;;;;;5013241;28;20187;-83
2022/09/01 03:28:12;;;;;;;2.83;1.98;;;18.60;99.90;;;;;;5013160;28;20177;-83
2022/09/01 03:30:42;;;;;;;2.63;2.25;;;18.50;99.90;;;;;;5013209;28;20242;-84
2022/09/01 03:33:08;;;;;;;10.25;2.33;;;18.50;99.90;;;;;;5012974;28;20188;-83
2022/09/01 03:35:34;;;;;;;3.03;1.90;;;18.30;99.90;;;;;;5014706;28;20309;-83
2022/09/01 03:38:01;;;;;;;6.72;2.53;;;18.20;99.90;;;;;;5013058;28;20263;-83
2022/09/01 03:40:32;;;;;;;4.40;2.33;;;18.20;99.90;;;;;;5012804;28;20254;-82
2022/09/01 03:42:59;;;;;;;12.95;2.70;;;18.30;99.90;;;;;;5012735;28;20657;-86
2022/09/01 03:45:25;;;;;;;5.72;2.30;;;18.30;99.90;;;;;;5014218;28;20520;-83
2022/09/01 03:47:53;;;;;;;9.35;2.38;;;18.30;99.90;;;;;;5012926;28;20176;-83
2022/09/01 03:50:21;;;;;;;10.15;2.80;;;18.50;99.90;;;;;;5012288;28;20617;-83
2022/09/01 03:52:57;;;;;;;9.30;2.83;;;18.50;99.90;;;;;;5013924;28;20212;-84
2022/09/01 03:55:27;;;;;;;5.40;3.00;;;18.20;99.90;;;;;;5012211;28;20172;-83
2022/09/01 03:57:54;;;;;;;5.38;3.33;;;18.10;99.90;;;;;;5012361;28;20549;-83
2022/09/01 04:00:22;;;;;;;10.25;2.67;;;18.10;99.90;;;;;;5012501;28;20560;-84
2022/09/01 04:02:50;;;;;;;12.60;3.10;;;18.10;99.90;;;;;;5013833;28;20215;-84
2022/09/01 04:05:23;;;;;;;9.45;2.92;;;17.90;99.90;;;;;;5012538;28;20184;-84
2022/09/01 04:07:50;;;;;;;5.50;2.95;;;17.90;99.90;;;;;;5012357;28;20548;-83
2022/09/01 04:10:17;;;;;;;21.73;3.90;;;17.80;99.90;;;;;;5012375;28;20166;-84
2022/09/01 04:12:43;;;;;;;12.98;2.90;;;17.80;99.90;;;;;;5012344;28;20192;-84
2022/09/01 04:15:11;;;;;;;6.80;2.45;;;17.80;99.90;;;;;;5012592;28;20227;-84
2022/09/01 04:20:22;;;;;;;13.73;3.03;;;17.90;99.90;;;;;;5013533;28;20191;-84
2022/09/01 04:22:49;;;;;;;6.78;3.55;;;17.70;99.90;;;;;;5012323;28;20888;-84
2022/09/01 04:25:17;;;;;;;9.82;4.10;;;17.70;99.90;;;;;;5012025;28;20247;-84
2022/09/01 04:27:43;;;;;;;16.20;4.00;;;17.70;99.90;;;;;;5013668;28;20176;-84
2022/09/01 04:30:09;;;;;;;5.03;3.30;;;17.70;99.90;;;;;;5013406;28;20609;-84
2022/09/01 04:32:36;;;;;;;15.25;4.38;;;17.60;99.90;;;;;;5012225;28;20592;-83
2022/09/01 04:35:03;;;;;;;6.85;3.22;;;17.80;99.90;;;;;;5012639;28;20169;-83
2022/09/01 04:37:29;;;;;;;13.23;3.60;;;17.70;99.90;;;;;;5012015;28;20172;-83
2022/09/01 04:39:56;;;;;;;4.70;3.33;;;17.70;99.90;;;;;;5011948;28;20172;-83
2022/09/01 04:42:23;;;;;;;14.15;3.85;;;17.50;99.90;;;;;;5013100;28;20684;-84
2022/09/01 04:44:50;;;;;;;6.35;3.53;;;17.40;99.90;;;;;;5011756;28;20192;-84
2022/09/01 04:47:18;;;;;;;5.18;4.60;;;17.60;99.90;;;;;;5012381;28;20184;-83
2022/09/01 04:49:47;;;;;;;5.15;3.25;;;17.60;99.90;;;;;;5012119;28;20164;-84
2022/09/01 04:52:13;;;;;;;13.50;3.50;;;17.70;99.90;;;;;;5011840;28;20193;-84
2022/09/01 04:54:39;;;;;;;10.13;4.15;;;17.60;99.90;;;;;;5013893;28;20648;-84
2022/09/01 04:57:05;;;;;;;9.32;4.35;;;17.60;99.90;;;;;;5014093;28;20254;-83
2022/09/01 04:59:32;;;;;;;6.03;3.63;;;17.40;99.90;;;;;;5014014;28;20165;-84
2022/09/01 05:01:59;;;;;;;10.02;3.55;;;17.50;99.90;;;;;;5012277;28;20366;-83
2022/09/01 05:04:31;;;;;;;9.00;3.90;;;17.50;99.90;;;;;;5016845;28;20517;-84
2022/09/01 05:07:00;;;;;;;15.88;4.55;;;17.50;99.90;;;;;;5016731;28;20174;-83
2022/09/01 05:09:28;;;;;;;8.80;3.88;;;17.30;99.90;;;;;;5017997;28;20168;-84
2022/09/01 05:11:55;;;;;;;8.00;3.65;;;17.30;99.90;;;;;;5016793;28;20199;-84
2022/09/01 05:14:21;;;;;;;5.50;3.65;;;17.20;99.90;;;;;;5017619;28;20161;-84
2022/09/01 05:16:48;;;;;;;8.20;3.45;;;17.10;99.90;;;;;;5016971;28;20178;-83
2022/09/01 05:19:16;;;;;;;7.50;3.72;;;17.10;99.90;;;;;;5016164;28;20208;-84
2022/09/01 05:21:46;;;;;;;5.82;3.40;;;17.30;99.90;;;;;;5017002;28;20208;-84
2022/09/01 05:24:15;;;;;;;5.05;3.45;;;17.20;99.90;;;;;;5015201;28;20207;-81
2022/09/01 05:26:41;;;;;;;7.78;2.95;;;17.10;99.90;;;;;;5016307;28;20684;-83
2022/09/01 05:29:12;;;;;;;8.63;3.38;;;17.20;99.90;;;;;;5015852;28;20617;-83
2022/09/01 05:31:41;;;;;;;11.90;3.80;;;17.10;99.90;;;;;;5014923;28;20172;-82
2022/09/01 05:34:08;;;;;;;8.07;3.65;;;17.20;99.90;;;;;;5015463;28;20172;-83
2022/09/01 05:36:36;;;;;;;13.85;4.00;;;17.20;99.90;;;;;;5015373;28;20172;-82
2022/09/01 05:39:03;;;;;;;9.05;3.60;;;17.30;99.90;;;;;;5015000;28;20172;-83
2022/09/01 05:41:29;;;;;;;7.88;3.80;;;17.10;99.90;;;;;;5015992;28;20208;-82
2022/09/01 05:43:55;;;;;;;7.97;3.13;;;17.20;99.90;;;;;;5015883;28;20572;-83
2022/09/01 05:46:25;;;;;;;9.32;3.90;;;17.20;99.90;;;;;;5014630;28;20184;-83
2022/09/01 05:48:51;;;;;;;15.00;4.80;;;17.20;99.90;;;;;;5014323;28;20172;-82
2022/09/01 05:51:25;;;;;;;16.23;4.18;;;17.30;99.90;;;;;;5015994;28;20173;-82
2022/09/01 05:53:55;;;;;;;7.47;3.65;;;17.40;99.90;;;;;;5014860;28;20173;-82
2022/09/01 05:56:22;;;;;;;6.15;4.03;;;17.40;99.90;;;;;;5014188;28;20672;-82
2022/09/01 05:58:49;;;;;;;11.80;5.15;;;17.50;99.90;;;;;;5014411;28;20208;-81
2022/09/01 06:01:20;;;;;;;7.00;3.75;;;17.50;99.90;;;;;;5013818;28;20639;-81
2022/09/01 06:03:53;;;;;;;8.88;3.90;;;17.60;99.90;;;;;;5014161;28;20242;-82
2022/09/01 06:06:21;;;;;;;19.63;4.50;;;17.60;99.90;;;;;;5014120;28;20164;-82
2022/09/01 06:08:50;;;;;;;19.98;5.43;;;17.90;99.90;;;;;;5013757;28;20588;-83
2022/09/01 06:11:16;;;;;;;13.20;4.68;;;17.80;99.90;;;;;;5014022;28;20172;-81
2022/09/01 06:13:45;;;;;;;18.23;6.53;;;17.90;99.90;;;;;;5013668;28;20196;-81
2022/09/01 06:16:14;;;;;;;19.67;4.90;;;17.90;99.90;;;;;;5014120;28;20180;-83
2022/09/01 06:18:42;;;;;;;54.15;8.27;;;17.90;99.90;;;;;;5013750;28;20255;-84
2022/09/01 06:21:11;;;;;;;45.85;7.88;;;17.90;99.90;;;;;;5013674;28;20215;-82
2022/09/01 06:23:37;;;;;;;9.75;5.47;;;18.00;99.90;;;;;;5014810;28;20192;-82
2022/09/01 06:26:03;;;;;;;12.77;4.82;;;18.10;99.90;;;;;;5013476;28;20173;-82
2022/09/01 06:28:29;;;;;;;16.23;4.85;;;18.00;99.90;;;;;;5013746;28;20175;-82
2022/09/01 06:30:56;;;;;;;41.05;6.93;;;18.00;99.90;;;;;;5013754;28;20576;-82
2022/09/01 06:33:23;;;;;;;47.20;7.93;;;17.90;99.90;;;;;;5014101;28;20204;-83
2022/09/01 06:35:51;;;;;;;27.48;6.70;;;17.80;99.90;;;;;;5013255;28;20169;-82
2022/09/01 06:38:18;;;;;;;224.75;22.90;;;17.80;99.90;;;;;;5013438;28;20553;-83
2022/09/01 06:40:44;;;;;;;74.30;9.43;;;17.80;99.90;;;;;;5014948;28;20216;-83
2022/09/01 06:43:11;;;;;;;24.60;5.72;;;17.80;99.90;;;;;;5015272;28;20275;-83
2022/09/01 06:45:43;;;;;;;11.75;4.88;;;17.90;99.90;;;;;;5013501;28;20524;-82
2022/09/01 06:48:15;;;;;;;9.60;5.05;;;17.90;99.90;;;;;;5012893;28;20657;-82
2022/09/01 06:50:41;;;;;;;14.95;5.18;;;18.00;99.90;;;;;;5013593;28;20172;-82
2022/09/01 06:53:10;;;;;;;17.58;5.65;;;18.30;99.90;;;;;;5014518;28;20215;-82
2022/09/01 06:55:37;;;;;;;11.13;5.10;;;18.50;99.90;;;;;;5013327;28;20576;-83
2022/09/01 06:58:13;;;;;;;6.57;4.32;;;18.50;99.90;;;;;;5013395;28;20196;-83
2022/09/01 07:00:41;;;;;;;12.52;5.47;;;18.50;99.90;;;;;;5014029;28;20261;-85
2022/09/01 07:03:12;;;;;;;19.10;5.30;;;18.60;99.90;;;;;;5014194;28;20200;-84
2022/09/01 07:05:44;;;;;;;8.75;5.03;;;18.40;99.90;;;;;;5013591;28;20188;-84
2022/09/01 07:08:16;;;;;;;43.78;8.65;;;18.60;99.90;;;;;;5014173;28;20481;-83
2022/09/01 07:10:48;;;;;;;26.13;4.97;;;18.60;99.90;;;;;;5014489;28;20461;-83
2022/09/01 07:13:22;;;;;;;28.77;5.50;;;18.70;99.90;;;;;;5012904;28;20299;-85
2022/09/01 07:15:49;;;;;;;35.60;5.38;;;18.80;99.90;;;;;;5014923;28;20168;-82
2022/09/01 07:18:16;;;;;;;14.32;5.15;;;18.80;99.90;;;;;;5012388;28;20172;-83
2022/09/01 07:20:43;;;;;;;27.90;5.35;;;18.80;99.90;;;;;;5012707;28;20295;-81
2022/09/01 07:23:10;;;;;;;16.30;5.53;;;19.00;99.90;;;;;;5012526;28;20192;-82
2022/09/01 07:25:42;;;;;;;11.63;5.88;;;19.10;99.90;;;;;;5014011;28;20175;-82
2022/09/01 07:28:08;;;;;;;15.65;6.22;;;19.00;99.90;;;;;;5013544;28;20194;-84
2022/09/01 07:30:42;;;;;;;33.47;8.90;;;19.10;99.90;;;;;;5013154;28;20644;-83
2022/09/01 07:33:10;;;;;;;38.10;7.30;;;19.30;99.90;;;;;;5012880;28;20192;-83
2022/09/01 07:35:38;;;;;;;15.35;4.82;;;19.20;99.90;;;;;;5013220;28;20181;-84
2022/09/01 07:38:06;;;;;;;18.65;4.85;;;19.40;99.90;;;;;;5013529;28;20271;-85
2022/09/01 07:40:37;;;;;;;16.67;5.72;;;19.50;99.90;;;;;;5013916;28;20169;-87
2022/09/01 07:43:07;;;;;;;23.90;6.05;;;19.50;99.90;;;;;;5019238;28;20192;-90
2022/09/01 07:45:37;;;;;;;23.88;6.00;;;19.50;99.90;;;;;;5024848;28;20242;-83
2022/09/01 07:48:05;;;;;;;61.88;9.90;;;19.40;99.90;;;;;;5017680;28;20182;-88
2022/09/01 07:50:36;;;;;;;81.25;8.63;;;19.50;99.90;;;;;;5014359;28;20188;-87
2022/09/01 07:53:03;;;;;;;65.90;9.30;;;19.60;99.90;;;;;;5013703;28;20188;-92
2022/09/01 07:55:30;;;;;;;113.82;11.68;;;19.60;99.90;;;;;;5014901;28;20165;-90
2022/09/01 07:57:58;;;;;;;16.25;4.78;;;19.70;99.90;;;;;;5024420;28;20176;-91
2022/09/01 08:00:23;;;;;;;21.13;5.03;;;19.60;99.90;;;;;;5016287;28;20176;-90
2022/09/01 08:02:50;;;;;;;11.48;5.55;;;19.80;99.90;;;;;;5024170;28;20695;-87
2022/09/01 08:05:21;;;;;;;11.90;5.13;;;20.00;99.90;;;;;;5033898;28;20230;-87
2022/09/01 08:07:48;;;;;;;12.95;4.43;;;20.20;99.90;;;;;;5034948;28;20208;-88
2022/09/01 08:10:14;;;;;;;8.90;4.38;;;20.20;99.90;;;;;;5033248;28;20520;-88
2022/09/01 08:12:40;;;;;;;8.88;3.80;;;20.30;99.90;;;;;;5026690;28;20245;-90
2022/09/01 08:15:08;;;;;;;24.55;4.85;;;20.50;99.90;;;;;;5015595;28;20187;-93
2022/09/01 08:17:36;;;;;;;6.05;3.88;;;20.70;99.90;;;;;;5014937;28;20634;-92
2022/09/01 08:20:02;;;;;;;10.38;4.15;;;20.70;99.90;;;;;;5013783;28;20161;-87
2022/09/01 08:22:28;;;;;;;14.10;4.05;;;20.70;99.90;;;;;;5008915;28;20211;-86
2022/09/01 08:24:53;;;;;;;5.28;3.20;;;20.90;99.90;;;;;;5019831;28;20198;-85
2022/09/01 08:27:19;;;;;;;5.53;3.63;;;21.00;99.90;;;;;;5010141;28;20188;-81
2022/09/01 08:29:45;;;;;;;24.67;4.68;;;21.10;99.90;;;;;;5012884;28;20169;-81
2022/09/01 08:32:11;;;;;;;15.18;4.20;;;21.20;99.90;;;;;;5011661;28;20188;-83
2022/09/01 08:34:37;;;;;;;36.75;6.53;;;21.30;99.90;;;;;;5011495;28;20183;-86
2022/09/01 08:37:04;;;;;;;29.92;4.15;;;21.30;99.90;;;;;;5009619;28;20191;-83
2022/09/01 08:39:29;;;;;;;14.13;3.78;;;21.50;99.90;;;;;;5018166;28;20188;-81
2022/09/01 08:42:34;;;;;;;8.50;3.20;;;21.60;99.90;;;;;;5018230;28;20233;-83
2022/09/01 08:45:17;;;;;;;5.85;2.90;;;21.80;99.90;;;;;;5027001;28;20168;-80
2022/09/01 08:47:42;;;;;;;11.70;3.15;;;22.10;99.90;;;;;;5031340;28;20179;-81
2022/09/01 08:50:08;;;;;;;7.97;2.97;;;22.20;99.90;;;;;;5027745;28;20156;-81
2022/09/01 08:52:43;;;;;;;8.82;3.75;;;22.40;99.90;;;;;;5010637;28;20196;-80
2022/09/01 08:55:20;;;;;;;6.05;2.83;;;22.40;99.90;;;;;;5012262;28;20180;-80
2022/09/01 08:57:50;;;;;;;18.83;2.90;;;22.30;99.90;;;;;;5012216;28;20255;-80
2022/09/01 09:00:19;;;;;;;4.80;2.63;;;22.50;99.90;;;;;;5011495;28;20182;-80
2022/09/01 09:03:05;;;;;;;9.20;2.85;;;22.70;99.90;;;;;;5011598;28;20299;-80
2022/09/01 09:05:41;;;;;;;20.58;3.70;;;22.80;99.90;;;;;;5012468;28;20175;-80
2022/09/01 09:08:47;;;;;;;13.75;2.78;;;23.00;99.90;;;;;;5011230;28;20617;-80
2022/09/01 09:11:37;;;;;;;9.38;3.67;;;23.10;99.90;;;;;;5006193;28;20188;-80
2022/09/01 09:14:14;;;;;;;10.77;2.47;;;23.00;99.90;;;;;;5011324;28;20549;-80
2022/09/01 09:16:47;;;;;;;6.38;2.70;;;23.00;99.90;;;;;;5011903;28;20200;-85
2022/09/01 09:19:27;;;;;;;15.20;2.88;;;23.20;99.90;;;;;;5011492;28;20171;-84
2022/09/01 09:21:54;;;;;;;8.48;2.13;;;23.20;99.90;;;;;;5010772;28;20266;-84
2022/09/01 09:24:48;;;;;;;11.35;2.28;;;23.40;99.90;;;;;;5022725;28;20358;-84
2022/09/01 09:27:18;;;;;;;12.95;2.25;;;23.40;99.90;;;;;;5029854;28;20216;-83
2022/09/01 09:29:56;;;;;;;9.90;2.40;;;23.50;99.90;;;;;;5024709;28;20175;-84
2022/09/01 09:32:40;;;;;;;8.10;2.17;;;23.60;99.90;;;;;;5031808;28;20180;-86
2022/09/01 09:35:33;;;;;;;6.60;1.88;;;23.60;99.90;;;;;;5028365;28;20668;-85
2022/09/01 09:41:18;;;;;;;3.03;1.95;;;23.80;99.90;;;;;;5007306;28;20219;-85
2022/09/01 09:43:46;;;;;;;3.53;1.80;;;23.90;99.90;;;;;;5032491;28;20186;-85
2022/09/01 09:46:23;;;;;;;2.85;1.92;;;24.10;99.90;;;;;;5030576;28;20616;-85
2022/09/01 09:49:10;;;;;;;4.70;2.05;;;24.20;99.90;;;;;;5031058;28;20179;-85
2022/09/01 09:51:42;;;;;;;7.80;2.00;;;24.20;99.90;;;;;;5035571;28;20183;-84
2022/09/01 09:54:32;;;;;;;9.10;1.70;;;24.20;99.90;;;;;;5034082;28;20258;-86
2022/09/01 09:57:16;;;;;;;5.75;1.67;;;24.30;99.90;;;;;;5033594;28;20258;-86
2022/09/01 09:59:58;;;;;;;8.77;1.40;;;24.50;99.90;;;;;;5033986;28;20187;-85
2022/09/01 10:02:25;;;;;;;9.18;1.88;;;24.70;99.90;;;;;;5035420;28;20239;-86
2022/09/01 10:04:54;;;;;;;5.50;1.50;;;24.70;99.90;;;;;;5035998;28;20171;-89
2022/09/01 10:07:35;;;;;;;9.90;1.40;;;24.60;99.90;;;;;;5021317;28;20241;-88
2022/09/01 10:10:05;;;;;;;8.63;1.60;;;24.70;99.90;;;;;;5035262;28;20269;-87
2022/09/01 10:12:32;;;;;;;12.15;1.58;;;24.80;99.90;;;;;;5029373;28;20188;-88
2022/09/01 10:15:06;;;;;;;5.30;1.33;;;25.00;99.90;;;;;;5017037;28;20173;-88
2022/09/01 10:17:37;;;;;;;2.80;1.30;;;25.00;99.90;;;;;;5017450;28;20206;-89
2022/09/01 10:20:24;;;;;;;4.25;1.98;;;25.20;99.90;;;;;;5015590;28;20172;-84
2022/09/01 10:22:51;;;;;;;17.48;1.73;;;25.10;99.90;;;;;;5013441;28;20212;-84
2022/09/01 10:25:36;;;;;;;7.95;1.60;;;25.00;99.90;;;;;;5013381;28;20169;-84
2022/09/01 10:28:16;;;;;;;9.80;2.08;;;25.10;99.90;;;;;;5015827;28;20250;-85
2022/09/01 10:30:44;;;;;;;2.33;1.38;;;25.20;99.90;;;;;;5015758;28;20176;-84
2022/09/01 10:33:12;;;;;;;8.80;1.38;;;25.00;99.90;;;;;;5015532;28;20193;-85
2022/09/01 10:35:44;;;;;;;7.47;1.30;;;25.10;99.90;;;;;;5014058;28;20644;-85
2022/09/01 10:38:22;;;;;;;4.80;1.30;;;25.10;99.90;;;;;;5018200;28;20171;-85
2022/09/01 10:41:05;;;;;;;9.25;1.10;;;25.20;99.90;;;;;;5034121;28;20525;-86
2022/09/01 10:43:39;;;;;;;15.18;2.10;;;25.20;99.90;;;;;;5034042;28;20206;-82
2022/09/01 10:46:23;;;;;;;50.60;6.32;;;25.30;99.90;;;;;;5034680;28;20616;-82
2022/09/01 10:48:50;;;;;;;17.98;3.25;;;25.50;99.90;;;;;;5035123;28;20655;-83
2022/09/01 10:51:17;;;;;;;60.78;4.55;;;25.50;99.90;;;;;;5034779;28;20530;-83
2022/09/01 10:53:44;;;;;;;84.97;8.75;;;25.60;99.90;;;;;;5035412;28;20257;-87
2022/09/01 10:56:15;;;;;;;7.65;1.75;;;25.60;99.90;;;;;;5033975;28;20168;-86
2022/09/01 10:59:02;;;;;;;11.05;1.52;;;25.50;99.90;;;;;;5034549;28;20634;-83
2022/09/01 11:01:40;;;;;;;10.63;1.25;;;25.40;99.90;;;;;;5032985;28;20509;-87
2022/09/01 11:04:11;;;;;;;3.90;1.15;;;25.50;99.90;;;;;;5035400;28;20248;-88
2022/09/01 11:07:04;;;;;;;8.75;1.77;;;25.50;99.60;;;;;;5033876;28;20178;-90
2022/09/01 11:09:36;;;;;;;5.93;1.70;;;25.50;99.40;;;;;;5033892;28;20190;-84
2022/09/01 11:12:31;;;;;;;6.35;1.40;;;25.50;99.50;;;;;;5034754;28;20200;-85
2022/09/01 11:15:04;;;;;;;6.35;1.73;;;25.50;99.40;;;;;;5034881;28;20167;-86
2022/09/01 11:17:38;;;;;;;2.55;1.65;;;25.70;99.20;;;;;;5033166;28;20172;-86
2022/09/01 11:20:33;;;;;;;12.63;1.67;;;25.90;99.20;;;;;;5033241;28;20228;-87
2022/09/01 11:23:04;;;;;;;25.60;2.30;;;26.00;98.50;;;;;;5033711;28;20203;-86
2022/09/01 11:25:35;;;;;;;13.57;1.33;;;26.00;98.70;;;;;;5033521;28;20599;-86
2022/09/01 11:28:14;;;;;;;2.83;1.50;;;25.90;98.30;;;;;;5033651;28;20223;-86
2022/09/01 11:31:07;;;;;;;3.30;1.40;;;25.60;98.10;;;;;;5034428;28;20166;-85
2022/09/01 11:33:55;;;;;;;2.97;1.38;;;25.60;98.30;;;;;;5033087;28;20199;-86
2022/09/01 11:36:27;;;;;;;2.47;1.50;;;25.60;97.90;;;;;;5033068;28;20563;-86
2022/09/01 11:39:02;;;;;;;7.10;1.60;;;25.70;97.80;;;;;;5032819;28;20182;-86
2022/09/01 11:41:32;;;;;;;3.92;1.30;;;25.80;97.50;;;;;;5032339;28;20702;-85
2022/09/01 11:44:00;;;;;;;16.73;1.42;;;25.70;97.50;;;;;;5034004;28;20247;-85
2022/09/01 11:46:33;;;;;;;7.13;2.30;;;25.60;97.60;;;;;;5033171;28;20703;-87
2022/09/01 11:49:05;;;;;;;2.38;1.27;;;25.80;97.40;;;;;;5033570;28;20184;-86
2022/09/01 11:51:44;;;;;;;3.53;1.40;;;26.10;97.40;;;;;;5033290;28;20168;-87
2022/09/01 11:54:10;;;;;;;8.00;1.67;;;26.20;97.20;;;;;;5033776;28;20172;-87
2022/09/01 11:56:36;;;;;;;3.67;1.27;;;26.30;97.00;;;;;;5033871;28;20254;-87
2022/09/01 11:59:02;;;;;;;8.98;1.67;;;26.30;97.10;;;;;;5032619;28;20188;-85
2022/09/01 12:01:34;;;;;;;3.08;1.10;;;26.40;96.90;;;;;;5032649;28;20315;-85
2022/09/01 12:04:25;;;;;;;8.68;1.30;;;26.30;96.50;;;;;;5032404;28;20226;-85
2022/09/01 12:06:56;;;;;;;10.15;1.50;;;26.20;96.50;;;;;;5032017;28;20576;-85
2022/09/01 12:09:48;;;;;;;6.47;1.30;;;26.20;96.70;;;;;;5032398;28;20262;-85
2022/09/01 12:12:35;;;;;;;6.68;1.88;;;26.10;96.40;;;;;;5038329;28;20187;-85
2022/09/01 12:15:06;;;;;;;3.50;1.17;;;25.80;97.00;;;;;;5042821;28;20168;-85
2022/09/01 12:17:33;;;;;;;4.40;1.60;;;25.80;97.00;;;;;;5042945;28;20164;-85
2022/09/01 12:20:38;;;;;;;10.75;1.40;;;25.80;97.00;;;;;;5043758;28;20182;-85
2022/09/01 12:23:24;;;;;;;5.70;1.23;;;25.90;97.10;;;;;;4985825;28;20201;-85
2022/09/01 12:25:54;;;;;;;9.00;1.42;;;25.90;96.90;;;;;;4997615;28;20177;-82
2022/09/01 12:28:22;;;;;;;3.38;1.40;;;25.70;97.00;;;;;;5020349;28;20187;-81
2022/09/01 12:30:48;;;;;;;1.83;1.20;;;25.70;97.20;;;;;;5043543;28;20221;-81
2022/09/01 12:33:17;;;;;;;5.97;1.40;;;25.50;97.20;;;;;;5042660;28;20187;-81
2022/09/01 12:35:44;;;;;;;2.13;1.10;;;25.40;97.20;;;;;;5034303;28;20514;-82
2022/09/01 12:38:18;;;;;;;10.00;1.73;;;25.50;97.10;;;;;;5032666;28;20529;-81
2022/09/01 12:40:49;;;;;;;10.63;1.40;;;25.50;97.40;;;;;;5031475;28;20635;-82
2022/09/01 12:43:38;;;;;;;11.95;1.90;;;25.50;97.20;;;;;;5032686;28;20597;-81
2022/09/01 12:46:09;;;;;;;2.22;1.60;;;25.70;97.20;;;;;;5032427;28;20198;-81
2022/09/01 12:48:38;;;;;;;2.55;1.40;;;25.70;97.10;;;;;;5030809;28;20168;-81
2022/09/01 12:51:22;;;;;;;3.13;2.13;;;25.90;96.20;;;;;;5031093;28;20620;-82
2022/09/01 12:53:56;;;;;;;6.18;1.38;;;26.10;95.70;;;;;;5031875;28;20187;-82
2022/09/01 12:56:33;;;;;;;4.97;2.00;;;26.10;95.90;;;;;;5030797;28;20511;-82
2022/09/01 12:59:08;;;;;;;9.38;1.27;;;26.00;96.10;;;;;;5031114;28;20167;-82
2022/09/01 13:01:38;;;;;;;6.10;1.30;;;25.80;96.30;;;;;;5030627;28;20217;-82
2022/09/01 13:04:21;;;;;;;1.42;1.13;;;25.80;96.20;;;;;;5031016;28;20547;-81
2022/09/01 13:06:48;;;;;;;4.95;1.30;;;25.80;96.20;;;;;;5032093;28;20175;-82
2022/09/01 13:09:14;;;;;;;5.38;1.40;;;26.00;96.70;;;;;;5030891;28;20262;-82
2022/09/01 13:11:41;;;;;;;2.83;1.30;;;26.10;96.40;;;;;;5030528;28;20640;-82